sensor_id;sensor_type;location;lat;lon;timestamp;pressure;altitude;pressure_sealevel;temperature;humidity
64243;BME280;50573;51.512;5.386;2023-04-05T00:02:46;102168.22;;;2.33;86.96
64243;BME280;50573;51.512;5.386;2023-04-05T00:12:50;102179.69;;;2.18;87.24
64243;BME280;50573;51.512;5.386;2023-04-05T00:22:54;102166.16;;;2.03;88.54
64243;BME280;50573;51.512;5.386;2023-04-05T00:32:57;102160.41;;;1.89;89.95
64243;BME280;50573;51.512;5.386;2023-04-05T00:43:02;102148.47;;;1.74;90.61
64243;BME280;50573;51.512;5.386;2023-04-05T00:53:05;102139.88;;;1.57;91.37
64243;BME280;50573;51.512;5.386;2023-04-05T01:03:10;102144.72;;;1.39;92.70
64243;BME280;50573;51.512;5.386;2023-04-05T01:13:15;102151.88;;;1.23;92.08
64243;BME280;50573;51.512;5.386;2023-04-05T01:23:27;102143.81;;;1.11;95.33
64243;BME280;50573;51.512;5.386;2023-04-05T01:33:43;102122.25;;;0.95;94.89
64243;BME280;50573;51.512;5.386;2023-04-05T01:43:49;102120.69;;;0.82;95.42
64243;BME280;50573;51.512;5.386;2023-04-05T01:53:54;102099.75;;;0.64;96.27
64243;BME280;50573;51.512;5.386;2023-04-05T02:03:57;102111.81;;;0.58;96.08
64243;BME280;50573;51.512;5.386;2023-04-05T02:14:02;102101.38;;;0.44;96.16
64243;BME280;50573;51.512;5.386;2023-04-05T02:24:06;102094.22;;;0.36;96.95
64243;BME280;50573;51.512;5.386;2023-04-05T02:34:10;102096.97;;;0.28;97.02
64243;BME280;50573;51.512;5.386;2023-04-05T02:44:14;102083.81;;;0.23;97.72
64243;BME280;50573;51.512;5.386;2023-04-05T02:54:19;102089.56;;;0.13;98.81
64243;BME280;50573;51.512;5.386;2023-04-05T03:04:22;102083.16;;;0.05;99.22
64243;BME280;50573;51.512;5.386;2023-04-05T03:14:34;102074.44;;;-0.04;100.00
64243;BME280;50573;51.512;5.386;2023-04-05T03:24:39;102052.34;;;-0.13;100.00
64243;BME280;50573;51.512;5.386;2023-04-05T03:34:47;102056.63;;;-0.21;100.00
64243;BME280;50573;51.512;5.386;2023-04-05T03:44:52;102037.19;;;-0.30;100.00
64243;BME280;50573;51.512;5.386;2023-04-05T03:54:57;102049.66;;;-0.34;100.00
64243;BME280;50573;51.512;5.386;2023-04-05T04:05:03;102031.78;;;-0.42;100.00
64243;BME280;50573;51.512;5.386;2023-04-05T04:15:10;102032.31;;;-0.48;100.00
64243;BME280;50573;51.512;5.386;2023-04-05T04:25:36;102034.41;;;-0.54;100.00
64243;BME280;50573;51.512;5.386;2023-04-05T04:36:10;102040.28;;;-0.60;100.00
64243;BME280;50573;51.512;5.386;2023-04-05T04:46:44;102034.28;;;-0.57;100.00
64243;BME280;50573;51.512;5.386;2023-04-05T04:56:51;102030.47;;;-0.56;100.00
64243;BME280;50573;51.512;5.386;2023-04-05T05:06:54;102029.69;;;-0.57;100.00
64243;BME280;50573;51.512;5.386;2023-04-05T05:16:59;102031.94;;;-0.59;100.00
64243;BME280;50573;51.512;5.386;2023-04-05T05:27:03;102017.44;;;-0.58;100.00
64243;BME280;50573;51.512;5.386;2023-04-05T05:37:08;102029.09;;;-0.42;100.00
64243;BME280;50573;51.512;5.386;2023-04-05T05:47:11;102018.91;;;-0.28;100.00
64243;BME280;50573;51.512;5.386;2023-04-05T05:57:16;102026.13;;;-0.08;100.00
64243;BME280;50573;51.512;5.386;2023-04-05T06:07:19;102031.53;;;0.17;100.00
64243;BME280;50573;51.512;5.386;2023-04-05T06:17:23;102034.28;;;0.53;100.00
64243;BME280;50573;51.512;5.386;2023-04-05T06:27:26;102044.25;;;1.00;97.81
64243;BME280;50573;51.512;5.386;2023-04-05T06:37:31;102043.34;;;1.48;97.01
64243;BME280;50573;51.512;5.386;2023-04-05T06:47:34;102042.19;;;1.89;92.03
64243;BME280;50573;51.512;5.386;2023-04-05T06:57:39;102053.03;;;2.35;89.96
64243;BME280;50573;51.512;5.386;2023-04-05T07:07:42;102065.44;;;2.87;85.21
64243;BME280;50573;51.512;5.386;2023-04-05T07:17:47;102059.19;;;3.33;84.02
64243;BME280;50573;51.512;5.386;2023-04-05T07:27:50;102062.56;;;3.83;83.56
64243;BME280;50573;51.512;5.386;2023-04-05T07:37:55;102051.41;;;4.46;78.95
64243;BME280;50573;51.512;5.386;2023-04-05T07:47:58;102050.31;;;4.99;76.33
64243;BME280;50573;51.512;5.386;2023-04-05T07:58:03;102062.56;;;5.48;74.46
64243;BME280;50573;51.512;5.386;2023-04-05T08:08:06;102060.69;;;5.82;71.72
64243;BME280;50573;51.512;5.386;2023-04-05T08:18:13;102064.31;;;6.30;64.68
64243;BME280;50573;51.512;5.386;2023-04-05T08:28:16;102068.41;;;6.53;60.51
64243;BME280;50573;51.512;5.386;2023-04-05T08:38:20;102067.97;;;6.95;58.32
64243;BME280;50573;51.512;5.386;2023-04-05T08:48:23;102060.53;;;7.39;60.25
64243;BME280;50573;51.512;5.386;2023-04-05T08:58:30;102062.97;;;7.62;57.32
64243;BME280;50573;51.512;5.386;2023-04-05T09:08:35;102058.41;;;8.01;56.17
64243;BME280;50573;51.512;5.386;2023-04-05T09:18:39;102049.97;;;8.23;58.06
64243;BME280;50573;51.512;5.386;2023-04-05T09:28:44;102044.56;;;8.44;56.72
64243;BME280;50573;51.512;5.386;2023-04-05T09:38:49;102046.13;;;8.67;54.53
64243;BME280;50573;51.512;5.386;2023-04-05T09:48:52;102042.25;;;8.78;50.22
64243;BME280;50573;51.512;5.386;2023-04-05T09:59:00;102043.38;;;8.98;48.61
64243;BME280;50573;51.512;5.386;2023-04-05T10:09:06;102029.00;;;9.19;49.77
64243;BME280;50573;51.512;5.386;2023-04-05T10:19:15;102018.81;;;9.44;47.06
64243;BME280;50573;51.512;5.386;2023-04-05T10:29:25;102017.88;;;9.75;46.44
64243;BME280;50573;51.512;5.386;2023-04-05T10:39:36;101999.63;;;9.72;44.29
64243;BME280;50573;51.512;5.386;2023-04-05T10:49:45;102013.84;;;10.08;44.43
64243;BME280;50573;51.512;5.386;2023-04-05T10:59:50;101990.81;;;10.19;41.63
64243;BME280;50573;51.512;5.386;2023-04-05T11:09:59;101978.03;;;10.13;43.08
64243;BME280;50573;51.512;5.386;2023-04-05T11:20:10;101974.63;;;10.46;43.07
64243;BME280;50573;51.512;5.386;2023-04-05T11:30:46;101968.16;;;10.73;41.06
64243;BME280;50573;51.512;5.386;2023-04-05T11:41:04;101970.69;;;10.91;41.00
64243;BME280;50573;51.512;5.386;2023-04-05T11:51:09;101951.34;;;11.15;42.16
64243;BME280;50573;51.512;5.386;2023-04-05T12:01:13;101940.53;;;11.08;40.32
64243;BME280;50573;51.512;5.386;2023-04-05T12:11:22;101921.94;;;11.30;41.34
64243;BME280;50573;51.512;5.386;2023-04-05T12:21:27;101917.63;;;11.33;40.47
64243;BME280;50573;51.512;5.386;2023-04-05T12:31:34;101910.91;;;11.67;40.34
64243;BME280;50573;51.512;5.386;2023-04-05T12:41:40;101906.34;;;12.10;38.40
64243;BME280;50573;51.512;5.386;2023-04-05T12:51:44;101894.66;;;12.33;37.48
64243;BME280;50573;51.512;5.386;2023-04-05T13:01:49;101883.13;;;12.22;36.56
64243;BME280;50573;51.512;5.386;2023-04-05T13:11:53;101872.47;;;12.70;35.21
64243;BME280;50573;51.512;5.386;2023-04-05T13:21:58;101870.31;;;13.01;34.36
64243;BME280;50573;51.512;5.386;2023-04-05T13:32:01;101853.91;;;13.01;34.04
64243;BME280;50573;51.512;5.386;2023-04-05T13:42:05;101838.75;;;12.57;34.48
64243;BME280;50573;51.512;5.386;2023-04-05T13:52:08;101832.78;;;12.62;35.42
64243;BME280;50573;51.512;5.386;2023-04-05T14:02:13;101833.25;;;12.96;36.21
64243;BME280;50573;51.512;5.386;2023-04-05T14:12:18;101809.22;;;12.88;36.22
64243;BME280;50573;51.512;5.386;2023-04-05T14:22:23;101799.28;;;13.13;36.88
64243;BME280;50573;51.512;5.386;2023-04-05T14:32:26;101796.50;;;13.17;35.28
64243;BME280;50573;51.512;5.386;2023-04-05T14:42:34;101777.41;;;13.29;35.27
64243;BME280;50573;51.512;5.386;2023-04-05T14:52:48;101783.56;;;13.81;33.27
64243;BME280;50573;51.512;5.386;2023-04-05T15:02:53;101770.13;;;14.32;31.56
64243;BME280;50573;51.512;5.386;2023-04-05T15:12:57;101764.22;;;14.99;33.03
64243;BME280;50573;51.512;5.386;2023-04-05T15:23:01;101746.13;;;15.74;29.64
64243;BME280;50573;51.512;5.386;2023-04-05T15:33:04;101741.28;;;15.99;29.52
64243;BME280;50573;51.512;5.386;2023-04-05T15:43:09;101737.44;;;15.75;28.15
64243;BME280;50573;51.512;5.386;2023-04-05T15:53:13;101729.28;;;14.62;31.48
64243;BME280;50573;51.512;5.386;2023-04-05T16:03:17;101723.19;;;14.30;31.88
64243;BME280;50573;51.512;5.386;2023-04-05T16:13:20;101709.34;;;12.99;34.82
64243;BME280;50573;51.512;5.386;2023-04-05T16:23:25;101692.56;;;12.45;37.09
64243;BME280;50573;51.512;5.386;2023-04-05T16:33:28;101688.09;;;12.16;36.65
64243;BME280;50573;51.512;5.386;2023-04-05T16:43:33;101683.06;;;12.14;37.13
64243;BME280;50573;51.512;5.386;2023-04-05T16:53:36;101689.19;;;12.22;37.18
64243;BME280;50573;51.512;5.386;2023-04-05T17:03:41;101686.78;;;12.24;36.94
64243;BME280;50573;51.512;5.386;2023-04-05T17:13:48;101681.59;;;11.71;38.34
64243;BME280;50573;51.512;5.386;2023-04-05T17:23:53;101671.22;;;11.39;38.20
64243;BME280;50573;51.512;5.386;2023-04-05T17:33:57;101669.63;;;10.95;40.32
64243;BME280;50573;51.512;5.386;2023-04-05T17:44:01;101675.47;;;10.67;40.90
64243;BME280;50573;51.512;5.386;2023-04-05T17:54:05;101680.16;;;10.40;42.38
64243;BME280;50573;51.512;5.386;2023-04-05T18:04:09;101665.41;;;10.04;43.98
64243;BME280;50573;51.512;5.386;2023-04-05T18:14:13;101677.94;;;9.61;44.03
64243;BME280;50573;51.512;5.386;2023-04-05T18:24:18;101678.19;;;9.33;45.92
64243;BME280;50573;51.512;5.386;2023-04-05T18:34:21;101677.16;;;9.16;45.82
64243;BME280;50573;51.512;5.386;2023-04-05T18:44:25;101687.44;;;8.95;46.59
64243;BME280;50573;51.512;5.386;2023-04-05T18:54:29;101678.75;;;8.59;47.99
64243;BME280;50573;51.512;5.386;2023-04-05T19:04:33;101690.13;;;8.22;51.64
64243;BME280;50573;51.512;5.386;2023-04-05T19:14:36;101691.44;;;7.83;52.48
64243;BME280;50573;51.512;5.386;2023-04-05T19:24:40;101703.09;;;7.48;54.11
64243;BME280;50573;51.512;5.386;2023-04-05T19:34:44;101689.94;;;7.15;55.38
64243;BME280;50573;51.512;5.386;2023-04-05T19:44:50;101688.00;;;6.98;58.75
64243;BME280;50573;51.512;5.386;2023-04-05T19:54:55;101688.38;;;6.93;62.81
64243;BME280;50573;51.512;5.386;2023-04-05T20:05:00;101676.00;;;6.85;61.83
64243;BME280;50573;51.512;5.386;2023-04-05T20:15:10;101676.72;;;6.71;62.78
64243;BME280;50573;51.512;5.386;2023-04-05T20:25:37;101669.38;;;6.54;63.37
64243;BME280;50573;51.512;5.386;2023-04-05T20:35:40;101658.53;;;6.54;60.89
64243;BME280;50573;51.512;5.386;2023-04-05T20:45:45;101645.75;;;6.34;60.75
64243;BME280;50573;51.512;5.386;2023-04-05T20:55:48;101640.25;;;6.09;62.34
64243;BME280;50573;51.512;5.386;2023-04-05T21:05:53;101643.59;;;5.89;62.68
64243;BME280;50573;51.512;5.386;2023-04-05T21:15:58;101633.03;;;5.59;63.62
64243;BME280;50573;51.512;5.386;2023-04-05T21:26:02;101621.25;;;5.30;65.41
64243;BME280;50573;51.512;5.386;2023-04-05T21:36:06;101617.34;;;5.24;66.36
64243;BME280;50573;51.512;5.386;2023-04-05T21:46:11;101633.63;;;5.31;66.81
64243;BME280;50573;51.512;5.386;2023-04-05T21:56:14;101623.22;;;5.37;67.59
64243;BME280;50573;51.512;5.386;2023-04-05T22:06:20;101611.31;;;5.45;67.38
64243;BME280;50573;51.512;5.386;2023-04-05T22:16:24;101600.94;;;5.54;66.08
64243;BME280;50573;51.512;5.386;2023-04-05T22:26:28;101603.16;;;5.41;66.82
64243;BME280;50573;51.512;5.386;2023-04-05T22:36:33;101598.03;;;5.22;66.90
64243;BME280;50573;51.512;5.386;2023-04-05T22:46:37;101597.19;;;5.11;66.72
64243;BME280;50573;51.512;5.386;2023-04-05T22:56:41;101590.66;;;5.16;66.93
64243;BME280;50573;51.512;5.386;2023-04-05T23:06:45;101579.81;;;5.05;67.39
64243;BME280;50573;51.512;5.386;2023-04-05T23:16:48;101570.06;;;4.94;67.19
64243;BME280;50573;51.512;5.386;2023-04-05T23:26:53;101556.44;;;4.73;68.49
64243;BME280;50573;51.512;5.386;2023-04-05T23:36:56;101548.47;;;4.43;68.60
64243;BME280;50573;51.512;5.386;2023-04-05T23:47:00;101537.09;;;4.23;69.63
64243;BME280;50573;51.512;5.386;2023-04-05T23:57:03;101533.88;;;4.07;70.10
